createdAt,value
2019-01-03T00:00:54.554Z,82.50
2019-01-03T00:03:26.297Z,83.60
2019-01-03T00:06:04.149Z,84.10
2019-01-03T00:08:35.951Z,85.00
2019-01-03T00:14:21.749Z,84.40
2019-01-03T00:16:53.609Z,84.80
2019-01-03T00:19:41.424Z,86.00
2019-01-03T00:22:13.581Z,86.40
2019-01-03T00:24:45.279Z,86.80
2019-01-03T00:27:20.012Z,87.30
2019-01-03T00:29:51.723Z,88.10
2019-01-03T00:32:26.048Z,88.20
2019-01-03T00:35:06.785Z,88.70
2019-01-03T00:37:38.616Z,88.00
2019-01-03T00:40:11.990Z,87.70
2019-01-03T00:43:00.007Z,88.50
2019-01-03T00:45:47.512Z,89.50
2019-01-03T00:48:35.507Z,90.20
2019-01-03T00:51:07.305Z,90.10
2019-01-03T00:53:48.201Z,89.60
2019-01-03T00:56:34.721Z,89.50
2019-01-03T00:59:09.086Z,89.90
2019-01-03T01:01:41.134Z,90.40
2019-01-03T01:04:27.688Z,91.10
2019-01-03T01:06:59.495Z,91.40
2019-01-03T01:09:47.448Z,91.40
2019-01-03T01:12:35.438Z,91.80
2019-01-03T01:15:11.587Z,91.60
2019-01-03T01:18:01.547Z,91.70
2019-01-03T01:20:49.521Z,91.90
2019-01-03T01:23:21.175Z,91.60
2019-01-03T01:25:55.821Z,91.50
2019-01-03T01:28:39.322Z,91.40
2019-01-03T01:31:27.025Z,91.70
2019-01-03T01:33:58.713Z,91.70
2019-01-03T01:36:49.608Z,91.60
2019-01-03T01:39:39.148Z,91.90
2019-01-03T01:42:11.025Z,92.00
2019-01-03T01:44:59.093Z,92.00
2019-01-03T01:47:42.915Z,92.20
2019-01-03T01:50:20.225Z,92.00
2019-01-03T01:53:00.652Z,91.90
2019-01-03T01:55:38.125Z,91.80
2019-01-03T01:58:25.905Z,92.00
2019-01-03T02:01:13.506Z,91.80
2019-01-03T02:03:48.613Z,92.00
2019-01-03T02:06:32.646Z,92.00
2019-01-03T02:09:04.438Z,92.00
2019-01-03T02:11:52.026Z,92.10
2019-01-03T02:14:24.018Z,92.00
2019-01-03T02:17:10.480Z,92.10
2019-01-03T02:19:51.015Z,92.10
2019-01-03T02:22:38.848Z,92.10
2019-01-03T02:25:10.682Z,92.10
2019-01-03T02:27:44.989Z,92.20
2019-01-03T02:30:20.066Z,92.20
2019-01-03T02:33:03.897Z,92.40
2019-01-03T02:35:38.720Z,92.10
2019-01-03T02:38:29.164Z,92.20
2019-01-03T02:41:03.508Z,92.20
2019-01-03T02:43:44.375Z,92.40
2019-01-03T02:46:18.957Z,92.40
2019-01-03T02:48:59.283Z,92.50
2019-01-03T02:51:34.119Z,92.50
2019-01-03T02:54:11.700Z,92.60
2019-01-03T02:56:55.459Z,92.70
2019-01-03T02:59:43.458Z,92.60
2019-01-03T03:02:15.281Z,92.50
2019-01-03T03:05:03.185Z,92.70
2019-01-03T03:07:34.944Z,92.80
2019-01-03T03:10:12.958Z,92.80
2019-01-03T03:12:44.674Z,92.90
2019-01-03T03:15:32.220Z,93.10
2019-01-03T03:18:04.073Z,93.10
2019-01-03T03:20:35.772Z,93.20
2019-01-03T03:23:23.427Z,93.20
2019-01-03T03:26:06.891Z,93.30
2019-01-03T03:28:54.826Z,93.50
2019-01-03T03:31:29.469Z,93.80
2019-01-03T03:34:07.277Z,94.00
2019-01-03T03:36:55.132Z,94.00
2019-01-03T03:39:38.813Z,93.90
2019-01-03T03:42:26.738Z,94.00
2019-01-03T03:44:58.459Z,94.10
2019-01-03T03:47:30.162Z,94.30
2019-01-03T03:50:17.887Z,94.80
2019-01-03T03:53:01.507Z,94.60
2019-01-03T03:55:49.542Z,94.60
2019-01-03T03:58:39.647Z,94.80
2019-01-03T04:01:27.366Z,94.90
2019-01-03T04:04:15.397Z,95.10
2019-01-03T04:06:53.200Z,95.30
2019-01-03T04:09:30.531Z,95.60
2019-01-03T04:12:11.537Z,95.60
2019-01-03T04:14:49.375Z,95.80
2019-01-03T04:17:23.716Z,96.50
2019-01-03T04:20:11.608Z,96.60
2019-01-03T04:22:55.761Z,96.90
2019-01-03T04:25:30.297Z,97.10
2019-01-03T04:28:07.948Z,97.50
2019-01-03T04:30:57.683Z,97.70
2019-01-03T04:33:35.292Z,98.10
2019-01-03T04:36:15.601Z,98.20
2019-01-03T04:38:53.240Z,98.10
2019-01-03T04:41:24.987Z,98.10
2019-01-03T04:44:08.684Z,98.20
2019-01-03T04:46:46.423Z,98.50
2019-01-03T04:49:27.277Z,98.70
2019-01-03T04:52:07.880Z,98.90
2019-01-03T04:54:55.531Z,98.90
2019-01-03T04:57:33.381Z,99.10
2019-01-03T05:00:10.726Z,99.20
2019-01-03T05:02:54.478Z,99.20
2019-01-03T05:05:38.281Z,99.60
2019-01-03T05:08:18.897Z,99.80
2019-01-03T05:10:50.726Z,99.90
2019-01-03T05:13:22.454Z,99.90
2019-01-03T05:15:57.184Z,99.90
2019-01-03T05:18:34.955Z,99.90
2019-01-03T05:21:09.618Z,99.90
2019-01-03T05:23:57.855Z,99.90
2019-01-03T05:26:29.753Z,99.90
2019-01-03T05:29:04.250Z,99.90
2019-01-03T05:31:51.847Z,99.90
2019-01-03T05:34:39.600Z,99.90
2019-01-03T05:37:20.714Z,99.90
2019-01-03T05:39:52.411Z,99.90
2019-01-03T05:42:27.024Z,99.90
2019-01-03T05:44:58.746Z,99.90
2019-01-03T05:47:46.921Z,99.90
2019-01-03T05:50:34.583Z,99.90
2019-01-03T05:53:09.072Z,99.90
2019-01-03T05:55:57.914Z,99.90
2019-01-03T05:58:29.798Z,99.90
2019-01-03T06:01:07.055Z,99.90
2019-01-03T06:03:47.665Z,99.90
2019-01-03T06:06:24.869Z,99.90
2019-01-03T06:09:13.338Z,99.90
2019-01-03T06:12:03.067Z,99.90
2019-01-03T06:14:40.958Z,99.90
2019-01-03T06:20:05.376Z,99.90
2019-01-03T06:22:53.177Z,99.90
2019-01-03T06:25:41.258Z,99.90
2019-01-03T06:28:28.769Z,99.90
2019-01-03T06:31:12.665Z,99.90
2019-01-03T06:34:00.646Z,99.90
2019-01-03T06:36:36.073Z,99.90
2019-01-03T06:39:17.325Z,99.90
2019-01-03T06:42:01.097Z,99.90
2019-01-03T06:44:32.807Z,99.90
2019-01-03T06:47:07.608Z,99.90
2019-01-03T06:49:39.342Z,99.90
2019-01-03T06:52:17.181Z,99.90
2019-01-03T06:54:48.898Z,99.90
2019-01-03T06:57:29.977Z,99.90
2019-01-03T07:00:10.446Z,99.90
2019-01-03T07:02:48.081Z,99.90
2019-01-03T07:05:28.634Z,99.90
2019-01-03T07:08:05.949Z,99.90
2019-01-03T07:10:55.328Z,99.90
2019-01-03T07:13:43.341Z,99.90
2019-01-03T07:16:27.172Z,99.90
2019-01-03T07:19:11.320Z,99.90
2019-01-03T07:21:45.625Z,99.90
2019-01-03T07:24:17.392Z,99.90
2019-01-03T07:27:03.933Z,99.90
2019-01-03T07:29:35.739Z,99.90
2019-01-03T07:32:25.486Z,99.90
2019-01-03T07:35:03.604Z,99.90
2019-01-03T07:37:38.454Z,99.90
2019-01-03T07:40:26.871Z,99.90
2019-01-03T07:43:01.040Z,99.90
2019-01-03T07:45:38.783Z,99.90
2019-01-03T07:48:13.044Z,99.90
2019-01-03T07:50:44.873Z,99.90
2019-01-03T07:53:22.400Z,99.90
2019-01-03T07:55:59.764Z,99.90
2019-01-03T07:58:40.476Z,99.90
2019-01-03T08:01:28.381Z,99.90
2019-01-03T08:04:02.903Z,99.90
2019-01-03T08:06:47.013Z,99.90
2019-01-03T08:09:35.022Z,99.90
2019-01-03T08:12:15.966Z,99.90
2019-01-03T08:14:47.710Z,99.90
2019-01-03T08:17:19.498Z,99.90
2019-01-03T08:19:51.199Z,99.90
2019-01-03T08:22:39.348Z,99.90
2019-01-03T08:25:14.078Z,99.90
2019-01-03T08:28:01.860Z,99.90
2019-01-03T08:30:39.099Z,99.90
2019-01-03T08:33:26.248Z,99.90
2019-01-03T08:36:06.833Z,99.90
2019-01-03T08:38:41.853Z,99.90
2019-01-03T08:41:25.575Z,99.90
2019-01-03T08:43:57.368Z,99.90
2019-01-03T08:46:45.493Z,99.90
2019-01-03T08:49:33.135Z,99.90
2019-01-03T08:52:21.292Z,99.90
2019-01-03T08:55:09.185Z,99.90
2019-01-03T08:57:46.505Z,99.90
2019-01-03T09:00:34.624Z,99.90
2019-01-03T09:03:14.959Z,99.90
2019-01-03T09:05:52.685Z,99.90
2019-01-03T09:08:33.382Z,99.90
2019-01-03T09:11:21.389Z,99.90
2019-01-03T09:13:53.267Z,99.90
2019-01-03T09:16:25.053Z,99.90
2019-01-03T09:19:14.629Z,99.90
2019-01-03T09:22:02.321Z,99.90
2019-01-03T09:24:34.076Z,99.90
2019-01-03T09:27:05.953Z,99.90
2019-01-03T09:29:37.731Z,99.90
2019-01-03T09:32:09.536Z,99.90
2019-01-03T09:34:42.147Z,99.90
2019-01-03T09:37:17.251Z,99.90
2019-01-03T09:40:23.377Z,99.90
2019-01-03T09:43:11.574Z,99.90
2019-01-03T09:45:44.436Z,99.90
2019-01-03T09:48:13.745Z,99.90
2019-01-03T09:50:44.090Z,99.90
2019-01-03T09:53:14.380Z,99.90
2019-01-03T09:55:44.755Z,99.90
2019-01-03T09:58:15.066Z,99.90
2019-01-03T10:00:45.400Z,99.90
2019-01-03T10:03:34.925Z,99.90
2019-01-03T10:06:05.215Z,99.90
2019-01-03T10:08:35.513Z,99.90
2019-01-03T10:11:05.917Z,99.90
2019-01-03T10:13:36.249Z,99.90
2019-01-03T10:16:06.941Z,99.90
2019-01-03T10:18:37.425Z,99.90
2019-01-03T10:21:07.760Z,99.90
2019-01-03T10:23:38.043Z,99.90
2019-01-03T10:26:08.471Z,99.90
2019-01-03T10:28:38.834Z,99.90
2019-01-03T10:31:09.114Z,99.90
2019-01-03T10:33:39.627Z,99.90
2019-01-03T10:36:09.918Z,99.90
2019-01-03T10:38:40.322Z,99.90
2019-01-03T10:41:10.738Z,99.90
2019-01-03T10:43:41.060Z,99.90
2019-01-03T10:46:11.387Z,99.90
2019-01-03T10:48:41.837Z,99.90
2019-01-03T10:51:12.168Z,99.90
2019-01-03T10:53:42.510Z,99.90
2019-01-03T10:56:12.904Z,99.90
2019-01-03T10:58:43.228Z,99.90
2019-01-03T11:01:13.539Z,99.90
2019-01-03T11:03:43.978Z,99.90
2019-01-03T11:06:14.275Z,99.90
2019-01-03T11:08:44.641Z,99.90
2019-01-03T11:11:14.993Z,99.90
2019-01-03T11:13:45.288Z,99.90
2019-01-03T11:16:15.662Z,99.90
2019-01-03T11:18:46.416Z,99.90
2019-01-03T11:21:16.736Z,99.90
2019-01-03T11:23:47.070Z,99.90
2019-01-03T11:26:17.546Z,99.90
2019-01-03T11:28:47.888Z,99.90
2019-01-03T11:31:18.250Z,99.90
2019-01-03T11:33:48.729Z,99.90
2019-01-03T11:36:19.059Z,99.90
2019-01-03T11:38:49.405Z,99.90
2019-01-03T11:41:19.844Z,99.90
2019-01-03T11:43:50.944Z,99.90
2019-01-03T11:46:21.312Z,99.90
2019-01-03T11:48:51.719Z,99.90
2019-01-03T11:51:22.076Z,99.90
2019-01-03T11:53:52.424Z,99.90
2019-01-03T11:56:22.861Z,99.90
2019-01-03T11:58:53.141Z,99.90
2019-01-03T12:01:23.460Z,99.90
2019-01-03T12:03:53.980Z,99.90
2019-01-03T12:06:24.321Z,99.90
2019-01-03T12:08:54.654Z,99.90
2019-01-03T12:11:25.111Z,99.90
2019-01-03T12:13:55.441Z,99.90
2019-01-03T12:16:25.899Z,99.90
2019-01-03T12:18:56.935Z,99.90
2019-01-03T12:21:27.355Z,99.90
2019-01-03T12:23:57.704Z,99.90
2019-01-03T12:26:28.127Z,99.90
2019-01-03T12:28:58.453Z,99.90
2019-01-03T12:31:28.810Z,99.90
2019-01-03T12:33:59.235Z,99.90
2019-01-03T12:36:29.602Z,99.90
2019-01-03T12:39:00.592Z,99.90
2019-01-03T12:41:31.001Z,99.90
2019-01-03T12:44:01.507Z,99.90
2019-01-03T12:46:31.924Z,99.90
2019-01-03T12:49:02.559Z,99.90
2019-01-03T12:51:32.906Z,99.90
2019-01-03T12:54:03.256Z,99.90
2019-01-03T12:56:33.607Z,99.90
2019-01-03T12:59:05.290Z,99.90
2019-01-03T13:01:35.574Z,99.90
2019-01-03T13:04:06.045Z,99.90
2019-01-03T13:06:36.450Z,99.90
2019-01-03T13:09:09.372Z,99.90
2019-01-03T13:11:39.698Z,99.90
2019-01-03T13:14:10.068Z,99.90
2019-01-03T13:16:40.429Z,99.90
2019-01-03T13:19:10.832Z,99.90
2019-01-03T13:21:43.007Z,99.90
2019-01-03T13:24:13.342Z,99.90
2019-01-03T13:26:43.697Z,99.90
2019-01-03T13:29:14.105Z,99.90
2019-01-03T13:31:45.225Z,99.90
2019-01-03T13:34:15.832Z,99.90
2019-01-03T13:36:47.454Z,99.90
2019-01-03T13:39:17.744Z,99.90
2019-01-03T13:41:48.085Z,99.90
2019-01-03T13:44:18.558Z,99.90
2019-01-03T13:46:48.912Z,99.90
2019-01-03T13:49:19.341Z,99.90
2019-01-03T13:51:49.826Z,99.90
2019-01-03T13:54:20.164Z,99.90
2019-01-03T13:56:50.521Z,99.90
2019-01-03T13:59:20.899Z,99.90
2019-01-03T14:01:51.298Z,99.90
2019-01-03T14:04:21.646Z,99.90
2019-01-03T14:06:52.153Z,99.90
2019-01-03T14:09:22.461Z,99.90
2019-01-03T14:11:52.822Z,99.90
2019-01-03T14:14:23.243Z,99.90
2019-01-03T14:16:53.570Z,99.90
2019-01-03T14:19:23.932Z,99.90
2019-01-03T14:21:54.350Z,99.90
2019-01-03T14:24:24.998Z,99.90
2019-01-03T14:26:55.295Z,99.90
2019-01-03T14:29:25.730Z,99.90
2019-01-03T14:31:56.090Z,99.90
2019-01-03T14:34:26.415Z,99.90
2019-01-03T14:36:56.952Z,99.90
2019-01-03T14:39:27.895Z,99.90
2019-01-03T14:41:58.211Z,99.90
2019-01-03T14:44:28.639Z,99.90
2019-01-03T14:46:59.027Z,99.90
2019-01-03T14:49:29.404Z,99.90
2019-01-03T14:51:59.842Z,99.90
2019-01-03T14:54:30.229Z,99.90
2019-01-03T14:57:00.607Z,99.90
2019-01-03T14:59:31.020Z,99.90
2019-01-03T15:02:01.363Z,99.90
2019-01-03T15:04:31.663Z,99.90
2019-01-03T15:07:02.221Z,99.90
2019-01-03T15:09:32.565Z,99.90
2019-01-03T15:12:02.875Z,99.90
2019-01-03T15:14:33.254Z,99.90
2019-01-03T15:17:03.622Z,99.90
2019-01-03T15:19:33.980Z,99.90
2019-01-03T15:22:04.435Z,99.50
2019-01-03T15:24:35.025Z,98.90
2019-01-03T15:27:05.409Z,97.60
2019-01-03T15:29:35.764Z,96.30
2019-01-03T15:32:06.115Z,95.90
2019-01-03T15:34:36.496Z,94.00
2019-01-03T15:37:06.984Z,93.60
2019-01-03T15:39:37.265Z,93.30
2019-01-03T15:42:07.680Z,92.70
2019-01-03T15:44:38.140Z,91.30
2019-01-03T15:47:09.780Z,88.60
2019-01-03T15:49:40.158Z,90.10
2019-01-03T15:52:10.686Z,89.30
2019-01-03T15:54:41.014Z,86.70
2019-01-03T15:57:11.414Z,85.40
2019-01-03T15:59:43.164Z,83.60
2019-01-03T16:02:13.635Z,83.10
2019-01-03T16:04:43.899Z,83.90
2019-01-03T16:07:14.341Z,84.50
2019-01-03T16:09:44.754Z,82.10
2019-01-03T16:12:15.162Z,81.40
2019-01-03T16:14:45.543Z,80.20
2019-01-03T16:17:15.875Z,79.60
2019-01-03T16:19:46.230Z,76.40
2019-01-03T16:22:16.696Z,75.40
2019-01-03T16:24:47.037Z,74.80
2019-01-03T16:27:17.659Z,75.50
2019-01-03T16:29:48.061Z,75.00
2019-01-03T16:32:18.363Z,73.50
2019-01-03T16:34:48.763Z,71.60
2019-01-03T16:37:19.217Z,72.80
2019-01-03T16:39:49.549Z,72.80
2019-01-03T16:42:22.387Z,71.50
2019-01-03T16:44:52.778Z,68.90
2019-01-03T16:47:23.118Z,66.20
2019-01-03T16:49:53.483Z,67.60
2019-01-03T16:52:23.975Z,64.50
2019-01-03T16:54:54.312Z,63.70
2019-01-03T16:57:24.673Z,66.30
2019-01-03T16:59:55.108Z,66.40
2019-01-03T17:02:25.458Z,64.60
2019-01-03T17:04:55.806Z,65.40
2019-01-03T17:07:26.259Z,60.70
2019-01-03T17:09:56.567Z,59.10
2019-01-03T17:12:26.920Z,54.80
2019-01-03T17:14:57.316Z,52.20
2019-01-03T17:17:27.644Z,53.80
2019-01-03T17:19:57.928Z,54.90
2019-01-03T17:22:28.431Z,52.40
2019-01-03T17:25:00.250Z,51.70
2019-01-03T17:27:30.602Z,53.50
2019-01-03T17:30:01.245Z,54.10
2019-01-03T17:32:31.608Z,51.30
2019-01-03T17:35:01.925Z,50.80
2019-01-03T17:37:32.406Z,53.60
2019-01-03T17:40:04.172Z,55.20
2019-01-03T17:42:34.530Z,57.50
2019-01-03T17:45:05.128Z,56.50
2019-01-03T17:47:35.976Z,56.00
2019-01-03T17:50:09.276Z,56.90
2019-01-03T17:52:39.541Z,55.60
2019-01-03T17:55:10.075Z,56.00
2019-01-03T17:57:40.556Z,55.40
2019-01-03T18:00:13.507Z,57.30
2019-01-03T18:02:43.920Z,57.80
2019-01-03T18:05:14.386Z,56.40
2019-01-03T18:07:44.740Z,54.90
2019-01-03T18:10:15.744Z,53.20
2019-01-03T18:12:46.122Z,55.10
2019-01-03T18:15:17.716Z,54.10
2019-01-03T18:17:48.184Z,51.00
2019-01-03T18:20:18.592Z,49.60
2019-01-03T18:22:48.947Z,48.20
2019-01-03T18:25:19.391Z,47.20
2019-01-03T18:27:49.791Z,46.30
2019-01-03T18:30:20.277Z,47.00
2019-01-03T18:32:50.916Z,46.40
2019-01-03T18:35:21.302Z,46.20
2019-01-03T18:37:51.656Z,44.80
2019-01-03T18:40:22.093Z,44.40
2019-01-03T18:42:52.415Z,43.60
2019-01-03T18:45:22.754Z,42.60
2019-01-03T18:47:53.240Z,42.60
2019-01-03T18:50:23.695Z,41.70
2019-01-03T18:52:53.968Z,41.10
2019-01-03T18:55:24.342Z,40.00
2019-01-03T18:57:54.680Z,38.70
2019-01-03T19:00:25.044Z,39.10
2019-01-03T19:02:55.486Z,39.80
2019-01-03T19:05:25.840Z,39.70
2019-01-03T19:07:56.181Z,40.00
2019-01-03T19:10:28.362Z,40.80
2019-01-03T19:12:58.371Z,39.00
2019-01-03T19:15:28.763Z,39.00
2019-01-03T19:17:59.197Z,38.30
2019-01-03T19:20:29.530Z,38.00
2019-01-03T19:22:59.905Z,38.80
2019-01-03T19:25:30.300Z,37.40
2019-01-03T19:28:00.624Z,36.10
2019-01-03T19:30:30.968Z,38.70
2019-01-03T19:33:01.420Z,38.10
2019-01-03T19:35:33.272Z,37.90
2019-01-03T19:38:03.640Z,37.40
2019-01-03T19:40:33.992Z,36.60
2019-01-03T19:43:04.394Z,37.90
2019-01-03T19:45:34.774Z,37.80
2019-01-03T19:48:05.149Z,36.40
2019-01-03T19:50:35.490Z,39.10
2019-01-03T19:53:06.093Z,38.70
2019-01-03T19:55:36.445Z,38.50
2019-01-03T19:58:06.796Z,39.00
2019-01-03T20:00:37.186Z,39.80
2019-01-03T20:03:07.553Z,41.10
2019-01-03T20:05:37.838Z,41.30
2019-01-03T20:08:08.503Z,41.00
2019-01-03T20:10:38.888Z,40.80
2019-01-03T20:13:09.379Z,41.40
2019-01-03T20:15:39.847Z,41.70
2019-01-03T20:18:10.237Z,42.10
2019-01-03T20:20:40.582Z,42.30
2019-01-03T20:23:11.209Z,42.00
2019-01-03T20:25:41.538Z,41.20
2019-01-03T20:28:13.109Z,41.10
2019-01-03T20:30:43.510Z,41.50
2019-01-03T20:33:13.790Z,41.20
2019-01-03T20:35:44.145Z,42.50
2019-01-03T20:38:15.154Z,42.00
2019-01-03T20:40:46.085Z,40.90
2019-01-03T20:43:16.396Z,42.20
2019-01-03T20:45:46.790Z,42.90
2019-01-03T20:48:17.193Z,46.10
2019-01-03T20:50:47.516Z,45.60
2019-01-03T20:53:17.972Z,49.80
2019-01-03T20:55:48.316Z,53.90
2019-01-03T20:58:18.698Z,54.00
2019-01-03T21:00:49.119Z,55.80
2019-01-03T21:03:19.477Z,55.50
2019-01-03T21:05:49.809Z,55.40
2019-01-03T21:08:20.326Z,55.60
2019-01-03T21:10:51.751Z,55.50
2019-01-03T21:13:22.195Z,57.20
2019-01-03T21:15:52.626Z,57.70
2019-01-03T21:18:22.980Z,58.50
2019-01-03T21:20:53.591Z,59.20
2019-01-03T21:23:24.319Z,60.00
2019-01-03T21:25:55.085Z,62.40
2019-01-03T21:28:25.511Z,63.70
2019-01-03T21:30:55.897Z,63.50
2019-01-03T21:33:26.243Z,63.60
2019-01-03T21:35:56.598Z,63.80
2019-01-03T21:38:26.977Z,64.60
2019-01-03T21:40:57.583Z,64.50
2019-01-03T21:43:28.126Z,64.10
2019-01-03T21:45:58.427Z,65.00
2019-01-03T21:48:28.774Z,66.00
2019-01-03T21:50:59.212Z,66.90
2019-01-03T21:53:29.618Z,68.90
2019-01-03T21:55:59.966Z,69.10
2019-01-03T21:58:30.414Z,69.00
2019-01-03T22:01:00.776Z,68.90
2019-01-03T22:03:31.136Z,71.20
2019-01-03T22:06:01.510Z,71.40
2019-01-03T22:08:31.865Z,71.20
2019-01-03T22:11:02.197Z,70.80
2019-01-03T22:13:32.640Z,71.30
2019-01-03T22:16:02.968Z,71.50
2019-01-03T22:18:33.360Z,73.00
2019-01-03T22:21:03.822Z,74.10
2019-01-03T22:23:34.149Z,74.80
2019-01-03T22:26:04.516Z,74.40
2019-01-03T22:28:34.987Z,74.80
2019-01-03T22:31:05.466Z,75.00
2019-01-03T22:33:35.901Z,76.20
2019-01-03T22:36:06.274Z,76.10
2019-01-03T22:38:36.613Z,76.40
2019-01-03T22:41:06.971Z,77.50
2019-01-03T22:43:37.712Z,77.50
2019-01-03T22:46:08.178Z,77.90
2019-01-03T22:48:38.524Z,77.60
2019-01-03T22:51:08.930Z,78.20
2019-01-03T22:53:39.268Z,78.40
2019-01-03T22:56:09.632Z,78.30
2019-01-03T22:58:40.153Z,78.80
2019-01-03T23:01:11.016Z,79.10
2019-01-03T23:03:41.490Z,79.20
2019-01-03T23:06:11.888Z,80.00
2019-01-03T23:08:42.207Z,80.00
2019-01-03T23:11:12.646Z,80.60
2019-01-03T23:13:43.138Z,80.40
2019-01-03T23:16:13.426Z,81.30
2019-01-03T23:18:43.816Z,81.70
2019-01-03T23:21:14.210Z,83.00
2019-01-03T23:23:44.568Z,83.70
2019-01-03T23:26:14.880Z,84.90
2019-01-03T23:28:45.299Z,86.00
2019-01-03T23:31:15.668Z,86.30
2019-01-03T23:33:46.032Z,86.60
2019-01-03T23:36:16.425Z,86.80
2019-01-03T23:38:46.802Z,87.40
2019-01-03T23:41:17.083Z,87.70
2019-01-03T23:43:47.548Z,89.50
2019-01-03T23:46:18.309Z,90.10
2019-01-03T23:48:48.732Z,90.40
2019-01-03T23:51:19.200Z,90.50
2019-01-03T23:53:49.542Z,90.70
2019-01-03T23:56:19.965Z,91.20
2019-01-03T23:58:50.493Z,91.40
